Time;durP1;ratioP1;P1;durP2;ratioP2;P2;SDS_P1;SDS_P2;PMS_P1;PMS_P2;Temp;Humidity;BMP_temperature;BMP_pressure;BME280_temperature;BME280_humidity;BME280_pressure;Samples;Min_cycle;Max_cycle;Signal;HPM_P1;HPM_P2
2021/03/30 03:32:27;;;;;;;7.00;5.32;;;5.40;97.00;;;;;;5128414;23;88527;-86
2021/03/30 03:34:53;;;;;;;6.90;5.10;;;5.40;96.90;;;;;;4853095;29;86953;-87
2021/03/30 03:37:19;;;;;;;9.63;4.97;;;5.40;96.40;;;;;;4871395;29;87557;-86
2021/03/30 03:39:45;;;;;;;8.18;4.72;;;5.40;96.40;;;;;;4864889;29;87406;-87
2021/03/30 03:42:10;;;;;;;7.22;4.47;;;5.40;96.60;;;;;;4845464;29;86469;-86
2021/03/30 03:44:36;;;;;;;6.68;5.03;;;5.40;96.90;;;;;;4872235;29;87043;-87
2021/03/30 03:47:02;;;;;;;7.63;4.57;;;5.30;96.90;;;;;;4872349;29;87237;-87
2021/03/30 03:49:28;;;;;;;8.30;5.50;;;5.30;96.40;;;;;;4870547;29;87881;-87
2021/03/30 03:52:02;;;;;;;8.98;5.18;;;5.30;96.90;;;;;;4851511;29;86921;-88
2021/03/30 03:54:29;;;;;;;8.32;5.57;;;5.30;97.30;;;;;;4869818;29;87002;-87
2021/03/30 03:57:24;;;;;;;7.18;5.50;;;5.20;97.20;;;;;;4869027;29;88603;-92
2021/03/30 03:59:50;;;;;;;11.38;5.80;;;5.20;97.00;;;;;;4854409;29;87098;-86
2021/03/30 04:02:28;;;;;;;9.45;5.88;;;5.20;97.00;;;;;;4868266;28;87038;-89
2021/03/30 04:05:10;;;;;;;7.80;5.18;;;5.20;96.90;;;;;;4858488;29;86495;-87
2021/03/30 04:07:54;;;;;;;7.03;5.32;;;5.20;97.30;;;;;;4861916;29;89831;-87
2021/03/30 04:10:23;;;;;;;7.00;5.30;;;5.20;97.80;;;;;;4859678;29;86920;-89
2021/03/30 04:12:50;;;;;;;7.18;5.68;;;5.10;98.20;;;;;;4871893;28;87060;-87
2021/03/30 04:15:18;;;;;;;11.45;6.18;;;5.10;98.10;;;;;;4870414;28;87529;-87
2021/03/30 04:17:44;;;;;;;11.18;5.93;;;5.10;98.50;;;;;;4878359;29;88656;-87
2021/03/30 04:20:14;;;;;;;12.50;6.10;;;5.10;98.00;;;;;;4893395;28;86849;-86
2021/03/30 04:22:41;;;;;;;8.98;5.85;;;5.10;98.10;;;;;;4875742;29;86465;-90
2021/03/30 04:25:09;;;;;;;11.70;7.50;;;5.10;98.40;;;;;;4868199;29;86280;-92
2021/03/30 04:27:35;;;;;;;10.23;5.97;;;5.00;98.90;;;;;;4876354;29;86886;-87
2021/03/30 04:30:00;;;;;;;8.82;5.07;;;5.00;98.40;;;;;;4876863;29;87313;-87
2021/03/30 04:32:26;;;;;;;10.27;6.13;;;4.90;98.60;;;;;;4888647;29;85617;-91
2021/03/30 04:34:52;;;;;;;10.25;5.47;;;5.00;99.40;;;;;;4890878;29;87153;-91
2021/03/30 04:37:19;;;;;;;9.77;5.88;;;4.90;99.50;;;;;;4888114;29;87022;-89
2021/03/30 04:39:44;;;;;;;10.32;6.45;;;4.90;99.50;;;;;;4860227;29;90274;-88
2021/03/30 04:42:10;;;;;;;8.90;6.90;;;4.90;99.90;;;;;;4868684;29;87069;-90
2021/03/30 04:44:37;;;;;;;10.98;5.97;;;4.90;99.90;;;;;;4888324;29;87368;-91
2021/03/30 04:47:03;;;;;;;10.45;5.88;;;4.90;99.90;;;;;;4892547;28;87245;-90
2021/03/30 04:49:28;;;;;;;12.18;6.05;;;4.80;99.50;;;;;;4888179;29;86944;-87
2021/03/30 04:51:54;;;;;;;9.07;6.03;;;4.90;99.70;;;;;;4875921;29;86123;-87
2021/03/30 04:54:20;;;;;;;10.25;6.07;;;4.80;99.70;;;;;;4873476;29;86917;-87
2021/03/30 04:56:46;;;;;;;11.13;6.38;;;4.80;99.80;;;;;;4861946;29;89837;-87
2021/03/30 04:59:12;;;;;;;8.73;5.63;;;4.80;99.90;;;;;;4872313;29;86913;-87
2021/03/30 05:01:38;;;;;;;8.50;6.43;;;4.80;99.80;;;;;;4874199;29;86915;-88
2021/03/30 05:04:03;;;;;;;7.50;5.18;;;4.70;99.70;;;;;;4854093;29;87568;-87
2021/03/30 05:06:29;;;;;;;9.68;5.78;;;4.70;99.80;;;;;;4873907;29;89634;-87
2021/03/30 05:08:55;;;;;;;9.93;6.15;;;4.80;99.90;;;;;;4871663;29;86701;-87
2021/03/30 05:11:21;;;;;;;8.00;5.93;;;4.70;99.90;;;;;;4859228;29;87010;-87
2021/03/30 05:13:47;;;;;;;8.38;5.70;;;4.80;99.90;;;;;;4853066;29;87152;-88
2021/03/30 05:16:13;;;;;;;9.43;6.18;;;4.70;99.90;;;;;;4864019;29;87218;-87
2021/03/30 05:18:38;;;;;;;8.27;6.03;;;4.60;99.90;;;;;;4868740;29;87431;-87
2021/03/30 05:21:05;;;;;;;13.68;6.53;;;4.60;99.90;;;;;;4869627;29;86134;-88
2021/03/30 05:23:33;;;;;;;10.50;6.50;;;4.70;99.90;;;;;;4850856;29;87116;-89
2021/03/30 05:26:00;;;;;;;13.68;10.05;;;4.70;99.90;;;;;;4868037;29;87763;-88
2021/03/30 05:28:26;;;;;;;15.35;9.25;;;;;;;;;;4867774;29;87933;-87
2021/03/30 05:30:52;;;;;;;12.70;8.65;;;4.90;99.90;;;;;;4867697;29;90107;-88
2021/03/30 05:33:31;;;;;;;13.95;8.23;;;4.90;99.90;;;;;;4867657;29;86771;-90
2021/03/30 05:35:57;;;;;;;11.35;7.78;;;5.00;99.90;;;;;;4868751;29;87325;-89
2021/03/30 05:38:22;;;;;;;11.50;7.95;;;5.10;99.90;;;;;;4869022;29;88256;-89
2021/03/30 05:40:48;;;;;;;10.57;7.55;;;5.10;99.90;;;;;;4867674;29;87095;-88
2021/03/30 05:43:14;;;;;;;14.88;9.02;;;5.20;99.90;;;;;;4865934;29;87795;-88
2021/03/30 05:45:41;;;;;;;12.52;7.72;;;5.30;99.90;;;;;;4867650;29;86491;-88
2021/03/30 05:48:11;;;;;;;9.80;7.18;;;5.40;99.90;;;;;;4867694;29;87435;-88
2021/03/30 05:50:37;;;;;;;11.98;6.97;;;5.50;99.90;;;;;;4864417;29;86848;-89
2021/03/30 05:53:08;;;;;;;9.98;6.70;;;5.60;99.90;;;;;;4841978;29;88018;-88
2021/03/30 05:55:37;;;;;;;8.85;7.15;;;5.80;99.90;;;;;;4860250;29;88658;-90
2021/03/30 05:58:05;;;;;;;15.68;8.13;;;6.00;99.90;;;;;;4867466;28;86625;-86
2021/03/30 06:00:36;;;;;;;10.93;7.65;;;6.00;99.90;;;;;;4866107;29;87181;-90
2021/03/30 06:03:06;;;;;;;;;;;6.20;99.90;;;;;;4868314;29;87044;-86
2021/03/30 06:05:33;;;;;;;10.23;6.78;;;6.30;99.90;;;;;;4869019;29;88330;-89
2021/03/30 06:08:00;;;;;;;9.13;7.18;;;6.40;99.90;;;;;;4867388;28;87617;-91
2021/03/30 06:10:31;;;;;;;11.70;7.13;;;6.70;99.90;;;;;;4851745;29;86409;-90
2021/03/30 06:12:58;;;;;;;16.10;7.55;;;7.20;99.90;;;;;;4868937;29;86656;-90
2021/03/30 06:15:32;;;;;;;12.38;8.32;;;7.20;99.90;;;;;;4849931;29;88132;-89
2021/03/30 06:18:02;;;;;;;13.02;7.55;;;7.50;99.90;;;;;;4862383;29;87985;-89
2021/03/30 06:20:36;;;;;;;11.55;7.95;;;7.70;99.90;;;;;;4849461;29;87239;-89
2021/03/30 06:23:05;;;;;;;9.32;6.88;;;7.90;99.90;;;;;;4846234;29;87007;-89
2021/03/30 06:25:46;;;;;;;13.73;8.07;;;8.00;99.80;;;;;;4858338;29;87318;-89
2021/03/30 06:28:29;;;;;;;12.85;7.30;;;8.20;99.90;;;;;;4868095;29;88048;-89
2021/03/30 06:31:00;;;;;;;17.90;9.77;;;8.50;99.90;;;;;;4850822;29;86966;-89
2021/03/30 06:33:27;;;;;;;16.85;9.63;;;9.10;99.90;;;;;;4850062;29;87026;-89
2021/03/30 06:36:12;;;;;;;13.45;8.48;;;10.50;98.00;;;;;;4850453;29;90246;-89
2021/03/30 06:39:04;;;;;;;12.48;7.55;;;12.50;93.20;;;;;;4867870;28;86907;-90
2021/03/30 06:41:47;;;;;;;13.32;7.53;;;14.50;85.20;;;;;;4848884;29;86960;-89
2021/03/30 06:46:51;;;;;;;12.63;7.75;;;17.80;68.50;;;;;;4866117;28;88890;-89
2021/03/30 06:49:18;;;;;;;8.40;6.43;;;19.10;61.70;;;;;;4867169;29;86948;-89
2021/03/30 06:51:59;;;;;;;8.43;6.10;;;20.20;56.80;;;;;;4868364;29;86942;-90
2021/03/30 06:54:25;;;;;;;8.57;6.50;;;21.20;50.30;;;;;;4840064;29;87135;-89
2021/03/30 06:56:56;;;;;;;8.50;6.68;;;22.00;49.60;;;;;;4867172;29;88337;-89
2021/03/30 06:59:23;;;;;;;6.88;6.05;;;22.70;47.20;;;;;;4850524;29;90720;-90
2021/03/30 07:01:56;;;;;;;8.25;6.35;;;23.50;44.90;;;;;;4867555;29;86216;-90
2021/03/30 07:04:22;;;;;;;9.23;7.10;;;24.20;41.70;;;;;;4857895;29;86786;-89
2021/03/30 07:06:54;;;;;;;8.93;6.38;;;24.90;41.40;;;;;;4866885;29;87305;-90
2021/03/30 07:09:23;;;;;;;9.55;6.50;;;25.40;38.90;;;;;;4866959;29;87855;-90
2021/03/30 07:11:50;;;;;;;8.00;6.20;;;26.00;38.10;;;;;;4867415;29;86541;-89
2021/03/30 07:14:15;;;;;;;7.68;6.88;;;26.60;37.90;;;;;;4867484;29;86554;-90
2021/03/30 07:16:54;;;;;;;7.63;6.47;;;27.00;36.20;;;;;;4867227;28;88677;-89
2021/03/30 07:19:26;;;;;;;7.32;6.18;;;27.70;35.00;;;;;;4850299;29;87037;-89
2021/03/30 07:22:07;;;;;;;8.00;6.18;;;28.30;33.90;;;;;;4867539;29;86939;-90
2021/03/30 07:24:52;;;;;;;7.78;6.20;;;28.80;33.80;;;;;;4867620;29;86926;-89
2021/03/30 07:27:23;;;;;;;7.13;6.40;;;29.40;32.20;;;;;;4867201;29;86426;-90
2021/03/30 07:29:50;;;;;;;7.30;6.57;;;29.90;32.10;;;;;;4867164;29;87021;-90
2021/03/30 07:32:37;;;;;;;7.45;6.70;;;30.20;31.80;;;;;;4875172;28;87110;-91
2021/03/30 07:35:16;;;;;;;7.95;7.00;;;30.80;29.70;;;;;;4890998;28;87113;-90
2021/03/30 07:38:03;;;;;;;7.95;6.63;;;31.10;29.40;;;;;;4874230;29;90876;-90
2021/03/30 07:40:29;;;;;;;8.60;7.18;;;31.40;28.70;;;;;;4871139;29;88216;-92
2021/03/30 07:42:56;;;;;;;8.18;6.80;;;31.30;29.60;;;;;;4882841;28;86356;-91
2021/03/30 07:45:28;;;;;;;7.75;6.95;;;31.90;28.90;;;;;;4882561;28;86165;-88
2021/03/30 07:47:55;;;;;;;8.45;6.70;;;32.20;28.90;;;;;;4877872;28;88850;-90
2021/03/30 07:50:23;;;;;;;7.90;7.00;;;32.60;28.80;;;;;;4886010;29;87287;-91
2021/03/30 07:52:52;;;;;;;7.90;6.00;;;33.00;28.40;;;;;;4876836;29;86198;-90
2021/03/30 07:55:25;;;;;;;7.30;6.40;;;33.00;27.70;;;;;;4881119;29;86862;-92
2021/03/30 07:57:59;;;;;;;10.82;6.60;;;33.30;27.40;;;;;;4880814;29;87000;-90
2021/03/30 08:00:31;;;;;;;8.48;6.03;;;33.70;27.20;;;;;;4867380;29;89171;-90
2021/03/30 08:03:23;;;;;;;8.20;5.72;;;34.30;27.00;;;;;;4864167;29;87080;-90
2021/03/30 08:06:19;;;;;;;12.00;6.07;;;34.90;25.90;;;;;;4847368;29;86931;-88
2021/03/30 08:09:07;;;;;;;7.10;6.30;;;35.30;25.90;;;;;;4867268;29;87760;-88
2021/03/30 08:11:53;;;;;;;8.90;5.40;;;35.80;25.10;;;;;;4864779;29;88288;-88
2021/03/30 08:14:19;;;;;;;6.10;5.20;;;36.00;25.90;;;;;;4869673;29;87025;-88
2021/03/30 08:16:47;;;;;;;7.05;5.40;;;36.40;26.20;;;;;;4890196;29;86296;-89
2021/03/30 08:19:14;;;;;;;8.80;5.88;;;36.90;25.80;;;;;;4890163;29;86226;-89
2021/03/30 08:21:58;;;;;;;7.25;6.55;;;37.30;26.00;;;;;;4890194;29;86746;-88
2021/03/30 08:24:47;;;;;;;7.38;6.75;;;37.80;25.50;;;;;;4889818;29;86178;-89
2021/03/30 08:27:31;;;;;;;8.48;7.72;;;38.10;26.00;;;;;;4874970;28;87250;-88
2021/03/30 08:30:00;;;;;;;8.50;7.32;;;38.40;25.60;;;;;;4890687;28;87056;-88
2021/03/30 08:32:27;;;;;;;9.35;7.38;;;38.00;26.20;;;;;;4890623;28;87389;-90
2021/03/30 08:34:53;;;;;;;7.93;7.13;;;38.50;25.80;;;;;;4871202;29;86335;-89
2021/03/30 08:37:22;;;;;;;10.10;7.60;;;39.00;25.50;;;;;;4891021;28;86301;-89
2021/03/30 08:39:48;;;;;;;7.70;6.90;;;38.90;25.40;;;;;;4891248;28;86552;-89
2021/03/30 08:42:18;;;;;;;7.75;7.15;;;39.10;25.20;;;;;;4885277;28;87593;-88
2021/03/30 08:44:44;;;;;;;8.07;7.38;;;39.10;25.00;;;;;;4866825;29;86222;-88
2021/03/30 08:47:24;;;;;;;8.32;7.65;;;39.00;25.30;;;;;;4867038;29;87068;-88
2021/03/30 08:49:50;;;;;;;8.02;7.13;;;38.90;25.20;;;;;;4862673;29;87867;-88
2021/03/30 08:52:18;;;;;;;8.18;7.43;;;38.60;25.20;;;;;;4867221;29;88332;-89
2021/03/30 08:54:56;;;;;;;8.02;7.32;;;38.20;25.60;;;;;;4867124;29;86936;-89
2021/03/30 08:57:32;;;;;;;7.97;7.18;;;37.70;25.80;;;;;;4850836;29;87279;-89
2021/03/30 09:00:00;;;;;;;7.53;6.82;;;37.60;25.80;;;;;;4867197;29;88355;-89
2021/03/30 09:02:27;;;;;;;8.18;7.35;;;38.00;25.60;;;;;;4862547;29;88463;-89
2021/03/30 09:04:54;;;;;;;8.77;7.13;;;38.60;25.40;;;;;;4861763;29;87221;-89
2021/03/30 09:07:20;;;;;;;9.30;8.02;;;38.90;25.40;;;;;;4867263;29;87085;-89
2021/03/30 09:09:47;;;;;;;8.60;7.93;;;39.00;25.10;;;;;;4867083;28;87373;-89
2021/03/30 09:12:21;;;;;;;8.90;8.00;;;39.20;25.20;;;;;;4867157;29;86846;-89
2021/03/30 09:15:11;;;;;;;9.38;7.57;;;39.90;24.90;;;;;;4861272;29;86959;-89
2021/03/30 09:18:00;;;;;;;7.93;7.13;;;40.40;24.60;;;;;;4866674;29;87981;-89
2021/03/30 09:20:28;;;;;;;9.98;7.80;;;40.80;24.40;;;;;;4855790;29;87252;-89
2021/03/30 09:22:57;;;;;;;7.85;7.07;;;41.00;24.60;;;;;;4866538;29;87055;-89
2021/03/30 09:27:54;;;;;;;8.75;7.88;;;41.70;23.50;;;;;;4863739;29;87007;-90
2021/03/30 09:30:21;;;;;;;8.15;7.45;;;41.80;23.30;;;;;;4866074;29;87451;-89
2021/03/30 09:32:49;;;;;;;9.75;7.45;;;42.20;23.50;;;;;;4866163;29;88813;-89
2021/03/30 09:35:16;;;;;;;7.43;6.82;;;42.40;23.50;;;;;;4866656;28;86241;-89
2021/03/30 09:37:52;;;;;;;7.60;7.00;;;42.60;23.00;;;;;;4863239;29;86796;-91
2021/03/30 09:40:22;;;;;;;7.72;7.13;;;43.00;22.60;;;;;;4868447;29;87257;-88
2021/03/30 09:42:48;;;;;;;7.25;6.55;;;43.20;22.60;;;;;;4858789;29;88057;-89
2021/03/30 09:45:20;;;;;;;7.68;6.97;;;43.30;22.60;;;;;;4869028;29;87180;-89
2021/03/30 09:47:46;;;;;;;9.95;7.15;;;43.70;22.50;;;;;;4867757;29;87710;-89
2021/03/30 09:50:13;;;;;;;7.72;7.13;;;43.80;22.40;;;;;;4868906;29;87300;-89
2021/03/30 09:52:39;;;;;;;7.68;7.07;;;44.00;22.40;;;;;;4864435;29;87962;-90
2021/03/30 09:55:06;;;;;;;8.45;7.57;;;43.80;22.10;;;;;;4866469;29;86849;-89
2021/03/30 09:57:33;;;;;;;7.93;7.28;;;43.70;21.90;;;;;;4848994;29;86926;-90
2021/03/30 10:00:00;;;;;;;8.60;7.80;;;43.70;22.10;;;;;;4850275;29;90478;-90
2021/03/30 10:02:31;;;;;;;8.52;7.50;;;44.00;21.80;;;;;;4864055;29;87727;-89
2021/03/30 10:05:01;;;;;;;8.07;7.47;;;43.90;22.20;;;;;;4865580;29;87066;-90
2021/03/30 10:07:35;;;;;;;8.55;7.50;;;44.30;22.30;;;;;;4865645;29;88104;-90
2021/03/30 10:10:06;;;;;;;7.80;7.18;;;44.50;22.20;;;;;;4853815;29;86945;-89
2021/03/30 10:12:54;;;;;;;8.55;7.32;;;44.60;21.70;;;;;;4862509;28;90151;-91
2021/03/30 10:15:37;;;;;;;8.05;7.45;;;44.90;21.70;;;;;;4846746;29;87105;-89
2021/03/30 10:18:05;;;;;;;7.72;6.97;;;45.10;21.40;;;;;;4837533;29;87992;-90
2021/03/30 10:20:34;;;;;;;8.30;7.70;;;45.10;21.50;;;;;;4862948;29;87275;-89
2021/03/30 10:23:00;;;;;;;8.27;7.57;;;45.30;21.60;;;;;;4847151;29;90578;-89
2021/03/30 10:25:30;;;;;;;9.18;8.32;;;45.60;21.90;;;;;;4868292;29;86139;-88
2021/03/30 10:27:58;;;;;;;8.73;8.02;;;45.70;21.50;;;;;;4865668;29;87215;-89
2021/03/30 10:30:34;;;;;;;8.63;7.93;;;45.30;21.50;;;;;;4867052;29;88157;-88
2021/03/30 10:33:03;;;;;;;8.35;7.75;;;45.10;21.20;;;;;;4842624;29;92010;-89
2021/03/30 10:35:30;;;;;;;8.32;7.70;;;44.50;22.10;;;;;;4850370;29;87021;-90
2021/03/30 10:37:56;;;;;;;8.73;7.93;;;43.70;21.50;;;;;;4848782;29;86898;-91
2021/03/30 10:40:29;;;;;;;8.32;7.63;;;42.60;22.00;;;;;;4848848;29;88491;-90
2021/03/30 10:42:55;;;;;;;8.15;7.55;;;41.30;22.50;;;;;;4847315;29;87873;-89
2021/03/30 10:45:29;;;;;;;8.57;7.97;;;40.10;22.70;;;;;;4848709;29;86598;-89
2021/03/30 10:48:00;;;;;;;8.68;7.97;;;38.80;23.20;;;;;;4849831;29;86960;-89
2021/03/30 10:50:26;;;;;;;10.27;7.93;;;37.50;23.50;;;;;;4848194;29;87920;-90
2021/03/30 10:52:52;;;;;;;8.20;7.40;;;36.20;23.90;;;;;;4848902;29;89930;-90
2021/03/30 10:55:20;;;;;;;8.75;7.95;;;35.10;24.30;;;;;;4847647;29;87013;-91
2021/03/30 10:57:46;;;;;;;8.98;8.13;;;35.30;24.70;;;;;;4849092;29;87830;-89
2021/03/30 11:00:13;;;;;;;9.48;8.50;;;36.00;24.50;;;;;;4848553;29;86845;-89
2021/03/30 11:02:39;;;;;;;9.20;8.30;;;37.30;24.00;;;;;;4829554;29;90645;-86
2021/03/30 11:05:06;;;;;;;9.15;8.25;;;38.30;23.30;;;;;;4847079;29;87128;-88
2021/03/30 11:07:32;;;;;;;9.10;7.72;;;39.10;23.00;;;;;;4850429;29;87231;-89
2021/03/30 11:09:59;;;;;;;8.57;7.85;;;40.20;22.70;;;;;;4859396;29;92021;-88
2021/03/30 11:12:25;;;;;;;8.70;8.00;;;41.20;22.40;;;;;;4864327;29;87046;-90
2021/03/30 11:14:51;;;;;;;9.32;8.43;;;42.10;22.20;;;;;;4868269;29;85629;-89
2021/03/30 11:17:16;;;;;;;8.52;7.68;;;42.90;22.30;;;;;;4865054;29;86333;-89
2021/03/30 11:19:44;;;;;;;8.82;7.97;;;43.20;22.30;;;;;;4848954;29;90065;-91
2021/03/30 11:22:10;;;;;;;8.55;7.80;;;43.60;21.90;;;;;;4851725;29;87820;-90
2021/03/30 11:24:40;;;;;;;9.20;8.45;;;43.80;21.60;;;;;;4850427;29;86946;-90
2021/03/30 11:27:12;;;;;;;9.43;8.63;;;44.10;21.20;;;;;;4851406;29;87103;-90
2021/03/30 11:29:42;;;;;;;9.10;8.40;;;44.50;21.20;;;;;;4851381;29;87324;-91
2021/03/30 11:39:56;;;;;;;9.38;8.57;;;44.70;20.80;;;;;;4851794;29;87284;-92
2021/03/30 11:42:24;;;;;;;8.98;8.32;;;44.50;20.80;;;;;;4851115;29;87306;-91
2021/03/30 11:44:51;;;;;;;9.15;8.27;;;44.50;21.00;;;;;;4851759;29;87363;-90
2021/03/30 11:47:22;;;;;;;8.23;7.50;;;44.70;20.80;;;;;;4853031;29;87935;-91
2021/03/30 11:49:47;;;;;;;9.15;8.20;;;45.40;21.10;;;;;;4852735;29;90338;-90
2021/03/30 11:52:15;;;;;;;8.48;7.78;;;45.60;20.80;;;;;;4861251;29;86942;-90
2021/03/30 11:54:41;;;;;;;8.68;7.88;;;45.50;20.40;;;;;;4873569;29;86244;-90
2021/03/30 11:57:08;;;;;;;8.23;7.53;;;45.70;20.80;;;;;;4875278;29;88507;-91
2021/03/30 11:59:34;;;;;;;8.85;7.80;;;45.70;20.80;;;;;;4857240;29;87706;-91
2021/03/30 12:02:00;;;;;;;9.52;8.23;;;45.80;20.60;;;;;;4865953;29;87955;-90
2021/03/30 12:04:32;;;;;;;8.35;7.65;;;45.70;20.40;;;;;;4874937;29;85509;-91
2021/03/30 12:06:58;;;;;;;8.32;7.53;;;46.40;20.50;;;;;;4857179;29;86248;-90
2021/03/30 12:09:23;;;;;;;7.63;6.93;;;46.40;20.40;;;;;;4842304;29;90956;-89
2021/03/30 12:11:49;;;;;;;8.50;6.85;;;46.30;20.00;;;;;;4851538;29;87818;-89
2021/03/30 12:14:17;;;;;;;7.80;7.10;;;46.10;20.20;;;;;;4850060;29;87013;-89
2021/03/30 12:16:46;;;;;;;7.82;7.13;;;45.90;20.30;;;;;;4837219;29;86873;-89
2021/03/30 12:19:15;;;;;;;8.63;7.53;;;45.30;20.60;;;;;;4851465;29;88367;-89
2021/03/30 12:21:42;;;;;;;8.82;8.18;;;44.60;20.90;;;;;;4852592;29;87427;-89
2021/03/30 12:24:08;;;;;;;9.07;8.30;;;44.00;21.70;;;;;;4849261;29;87699;-89
2021/03/30 12:26:34;;;;;;;9.35;8.55;;;43.10;22.50;;;;;;4853100;29;86958;-89
2021/03/30 12:29:02;;;;;;;9.60;8.63;;;42.70;22.70;;;;;;4852963;29;87005;-89
2021/03/30 12:31:28;;;;;;;9.75;8.82;;;42.40;23.10;;;;;;4851000;29;89361;-89
2021/03/30 12:33:54;;;;;;;11.82;9.20;;;42.10;23.20;;;;;;4849366;29;86801;-89
2021/03/30 12:36:19;;;;;;;10.25;9.25;;;41.80;23.10;;;;;;4842125;29;88188;-88
2021/03/30 12:38:45;;;;;;;10.32;9.40;;;41.90;23.40;;;;;;4855045;29;87738;-89
2021/03/30 12:41:11;;;;;;;10.68;9.68;;;42.10;23.40;;;;;;4851020;29;90655;-89
2021/03/30 12:43:37;;;;;;;9.02;8.32;;;42.50;24.50;;;;;;4846335;29;86923;-88
2021/03/30 12:46:02;;;;;;;9.13;8.27;;;41.90;25.30;;;;;;4842359;29;87075;-88
2021/03/30 12:48:29;;;;;;;9.27;8.40;;;41.00;27.70;;;;;;4850354;29;86997;-88
2021/03/30 12:50:56;;;;;;;10.80;9.73;;;40.10;27.50;;;;;;4851680;29;86994;-89
2021/03/30 12:53:21;;;;;;;9.40;7.95;;;39.00;25.90;;;;;;4862944;29;86230;-91
2021/03/30 12:55:48;;;;;;;8.95;8.10;;;38.40;25.80;;;;;;4846672;29;87100;-91
2021/03/30 12:58:13;;;;;;;9.85;8.85;;;38.30;25.30;;;;;;4847925;29;87057;-90
2021/03/30 13:00:39;;;;;;;9.35;8.52;;;38.10;25.30;;;;;;4848136;29;87933;-90
2021/03/30 13:03:05;;;;;;;10.13;8.75;;;38.30;25.00;;;;;;4848648;29;87178;-89
2021/03/30 13:05:31;;;;;;;10.82;9.48;;;38.50;25.20;;;;;;4847726;29;87096;-89
2021/03/30 13:07:56;;;;;;;9.32;8.52;;;38.70;24.80;;;;;;4846561;29;87469;-89
2021/03/30 13:10:22;;;;;;;9.40;8.50;;;38.60;24.70;;;;;;4848221;29;87879;-90
2021/03/30 13:12:48;;;;;;;10.02;8.95;;;38.90;24.70;;;;;;4848077;29;86872;-89
2021/03/30 13:15:14;;;;;;;10.43;8.98;;;39.20;24.50;;;;;;4847542;29;86934;-90
2021/03/30 13:17:40;;;;;;;9.73;8.85;;;39.30;24.20;;;;;;4847486;29;86248;-90
2021/03/30 13:20:06;;;;;;;9.43;8.52;;;39.00;23.90;;;;;;4847824;29;87003;-90
2021/03/30 13:22:32;;;;;;;9.02;8.07;;;39.20;23.90;;;;;;4848346;29;86964;-90
2021/03/30 13:25:00;;;;;;;10.90;8.55;;;39.10;23.80;;;;;;4847432;29;87995;-90
2021/03/30 13:27:26;;;;;;;13.35;9.38;;;39.10;23.80;;;;;;4848327;29;87430;-91
2021/03/30 13:29:53;;;;;;;9.15;8.25;;;39.00;23.80;;;;;;4847221;29;87098;-90
2021/03/30 13:32:19;;;;;;;10.93;8.60;;;38.90;23.90;;;;;;4860866;29;86926;-89
2021/03/30 13:34:47;;;;;;;9.95;8.70;;;38.80;24.00;;;;;;4867273;29;86300;-90
2021/03/30 13:37:14;;;;;;;9.93;8.93;;;38.70;23.80;;;;;;4867310;29;87679;-90
2021/03/30 13:39:42;;;;;;;9.50;8.50;;;38.30;23.80;;;;;;4866837;28;87922;-89
2021/03/30 13:42:10;;;;;;;9.40;8.27;;;38.30;23.90;;;;;;4868764;29;86435;-89
2021/03/30 13:44:35;;;;;;;8.73;7.85;;;37.90;23.90;;;;;;4866986;28;86739;-89
2021/03/30 13:47:03;;;;;;;10.38;8.25;;;37.80;23.80;;;;;;4868932;29;86687;-89
2021/03/30 13:49:30;;;;;;;8.27;7.47;;;37.50;24.20;;;;;;4867445;29;87645;-89
2021/03/30 13:51:56;;;;;;;8.27;7.30;;;37.30;24.30;;;;;;4867403;29;87020;-87
2021/03/30 13:54:24;;;;;;;7.85;7.05;;;36.80;24.20;;;;;;4864279;28;87539;-87
2021/03/30 13:56:51;;;;;;;8.43;7.55;;;36.80;24.30;;;;;;4865324;28;87450;-87
2021/03/30 13:59:17;;;;;;;9.57;8.38;;;36.60;24.60;;;;;;4856565;29;87583;-87
2021/03/30 14:01:42;;;;;;;8.88;7.97;;;36.50;24.70;;;;;;4868039;29;87383;-87
2021/03/30 14:04:08;;;;;;;9.27;8.35;;;36.60;25.00;;;;;;4865615;28;87055;-87
2021/03/30 14:06:34;;;;;;;10.07;7.80;;;36.70;25.00;;;;;;4866930;29;86970;-87
2021/03/30 14:09:00;;;;;;;8.40;7.53;;;36.60;24.70;;;;;;4866359;29;87461;-87
2021/03/30 14:11:35;;;;;;;7.88;7.20;;;36.20;24.80;;;;;;4866744;29;86889;-87
2021/03/30 14:14:23;;;;;;;8.30;7.57;;;36.30;25.10;;;;;;4854130;29;88168;-87
2021/03/30 14:19:23;;;;;;;11.52;8.38;;;36.10;25.40;;;;;;4877732;29;87673;-88
2021/03/30 14:21:53;;;;;;;9.80;8.52;;;35.90;25.30;;;;;;4884428;29;86597;-88
2021/03/30 14:24:39;;;;;;;9.40;8.32;;;35.60;25.20;;;;;;4873180;29;86175;-88
2021/03/30 14:27:06;;;;;;;12.43;9.02;;;35.30;25.50;;;;;;4887915;28;87893;-88
2021/03/30 14:29:32;;;;;;;11.88;8.85;;;35.10;25.70;;;;;;4871005;29;86888;-88
2021/03/30 14:31:59;;;;;;;11.52;9.25;;;35.00;25.70;;;;;;4869286;29;86221;-88
2021/03/30 14:34:25;;;;;;;11.02;9.45;;;34.90;25.70;;;;;;4891190;28;86294;-88
2021/03/30 14:36:51;;;;;;;10.05;8.43;;;34.60;25.80;;;;;;4891202;28;89072;-88
2021/03/30 14:39:20;;;;;;;10.43;9.40;;;34.60;26.00;;;;;;4885761;28;88829;-92
2021/03/30 14:41:48;;;;;;;11.10;9.07;;;34.30;26.40;;;;;;4852851;29;87102;-88
2021/03/30 14:54:39;;;;;;;12.75;10.40;;;32.80;26.80;;;;;;4864509;29;87007;-90
2021/03/30 14:57:12;;;;;;;10.82;9.60;;;32.80;27.20;;;;;;4866456;28;87257;-88
2021/03/30 14:59:45;;;;;;;10.45;9.07;;;32.80;27.10;;;;;;4866553;29;87111;-89
2021/03/30 15:02:38;;;;;;;9.60;8.73;;;32.60;26.90;;;;;;4870126;28;86554;-91
2021/03/30 15:05:06;;;;;;;9.75;8.70;;;32.50;27.20;;;;;;4868134;29;87891;-90
2021/03/30 15:07:32;;;;;;;9.55;8.57;;;32.00;27.40;;;;;;4867547;29;89893;-91
2021/03/30 15:09:58;;;;;;;11.55;9.45;;;31.80;27.30;;;;;;4854259;29;89414;-91
2021/03/30 15:12:24;;;;;;;11.77;8.32;;;31.70;27.20;;;;;;4851488;29;86938;-93
2021/03/30 15:14:51;;;;;;;11.02;8.48;;;31.20;27.40;;;;;;4851315;29;87097;-91
2021/03/30 15:17:17;;;;;;;9.80;8.73;;;30.80;27.60;;;;;;4868520;29;88861;-89
2021/03/30 15:19:43;;;;;;;13.55;8.70;;;30.50;27.40;;;;;;4868272;28;87092;-89
2021/03/30 15:22:09;;;;;;;13.15;8.93;;;30.20;27.60;;;;;;4860498;29;86309;-90
2021/03/30 15:24:36;;;;;;;9.98;8.77;;;30.00;27.80;;;;;;4850515;29;87149;-90
2021/03/30 15:27:03;;;;;;;9.77;8.40;;;29.80;28.00;;;;;;4862788;28;87752;-88
2021/03/30 15:29:29;;;;;;;10.75;8.65;;;29.80;28.00;;;;;;4844535;29;90368;-89
2021/03/30 15:31:56;;;;;;;11.93;8.45;;;29.50;28.60;;;;;;4867258;29;86946;-89
2021/03/30 15:34:22;;;;;;;9.60;7.88;;;29.30;28.40;;;;;;4850316;29;87042;-89
2021/03/30 15:36:47;;;;;;;10.88;7.78;;;29.00;28.50;;;;;;4867009;29;88617;-89
2021/03/30 15:39:14;;;;;;;8.48;7.68;;;28.60;28.60;;;;;;4858118;29;90054;-89
2021/03/30 15:41:40;;;;;;;10.38;8.15;;;28.40;28.80;;;;;;4867444;29;87010;-89
2021/03/30 15:44:19;;;;;;;10.05;8.18;;;28.10;28.80;;;;;;4848768;29;87027;-89
2021/03/30 15:49:29;;;;;;;9.80;8.27;;;27.60;29.30;;;;;;4866322;29;86933;-89
2021/03/30 15:51:55;;;;;;;11.73;8.45;;;27.40;29.50;;;;;;4849713;29;86992;-89
2021/03/30 15:54:24;;;;;;;9.10;8.10;;;27.00;29.70;;;;;;4865703;29;87974;-90
2021/03/30 15:56:49;;;;;;;11.90;9.50;;;26.80;30.10;;;;;;4851541;29;90755;-90
2021/03/30 15:59:15;;;;;;;11.40;9.35;;;26.50;30.40;;;;;;4856375;29;87349;-90
2021/03/30 16:01:41;;;;;;;12.80;8.57;;;26.20;30.70;;;;;;4845086;29;86941;-91
2021/03/30 16:04:21;;;;;;;10.32;8.32;;;25.90;31.10;;;;;;4872764;29;87210;-91
2021/03/30 16:06:47;;;;;;;;;;;25.60;32.90;;;;;;4881855;28;87689;-90
2021/03/30 16:09:12;;;;;;;9.93;8.70;;;25.20;32.40;;;;;;4893630;28;86296;-91
2021/03/30 16:11:42;;;;;;;10.93;9.15;;;24.90;32.10;;;;;;4893009;28;86088;-90
2021/03/30 16:14:12;;;;;;;13.57;8.35;;;24.70;32.30;;;;;;4858419;29;86805;-93
2021/03/30 16:16:37;;;;;;;11.00;8.38;;;24.50;32.40;;;;;;4884675;28;90114;-92
2021/03/30 16:19:03;;;;;;;12.25;8.85;;;24.30;32.50;;;;;;4889489;28;87492;-90
2021/03/30 16:21:29;;;;;;;14.57;9.05;;;24.20;33.20;;;;;;4904950;28;86340;-89
2021/03/30 16:23:55;;;;;;;10.35;8.27;;;24.00;33.20;;;;;;4873974;29;86849;-89
2021/03/30 16:26:20;;;;;;;12.75;8.93;;;23.80;33.20;;;;;;4873266;29;87784;-89
2021/03/30 16:28:50;;;;;;;11.23;8.80;;;23.60;33.80;;;;;;4854973;29;89455;-90
2021/03/30 16:31:17;;;;;;;10.90;9.65;;;23.30;34.00;;;;;;4862483;29;86980;-92
2021/03/30 16:34:03;;;;;;;11.85;8.98;;;23.20;34.10;;;;;;4858938;29;87114;-90
2021/03/30 16:36:28;;;;;;;11.07;9.32;;;23.10;35.10;;;;;;4854000;29;87074;-90
2021/03/30 16:38:54;;;;;;;14.52;10.50;;;22.90;35.00;;;;;;4853250;29;91428;-90
2021/03/30 16:41:21;;;;;;;10.85;9.73;;;22.70;35.30;;;;;;4852666;29;87012;-92
2021/03/30 16:43:47;;;;;;;13.48;9.80;;;22.50;35.60;;;;;;4851173;29;87826;-90
2021/03/30 16:46:14;;;;;;;12.73;9.35;;;22.40;35.50;;;;;;4853546;29;87495;-91
2021/03/30 16:48:40;;;;;;;13.50;9.48;;;22.30;35.80;;;;;;4855292;29;87064;-89
2021/03/30 16:51:14;;;;;;;14.02;9.85;;;22.20;36.00;;;;;;4852754;29;86959;-91
2021/03/30 16:53:41;;;;;;;13.18;9.77;;;22.10;36.10;;;;;;4852519;29;86963;-89
2021/03/30 16:56:07;;;;;;;12.93;9.63;;;22.00;36.10;;;;;;4855631;29;90437;-92